Time;durP1;ratioP1;P1;durP2;ratioP2;P2;SDS_P1;SDS_P2;PMS_P1;PMS_P2;Temp;Humidity;BMP_temperature;BMP_pressure;BME280_temperature;BME280_humidity;BME280_pressure;Samples;Min_cycle;Max_cycle;Signal;HPM_P1;HPM_P2
2022/04/03 00:02:26;;;;;;;2.58;0.50;;;;;;;1.94;92.98;102463.97;5113984;28;20131;-27
2022/04/03 00:04:54;;;;;;;2.97;0.75;;;;;;;1.87;93.40;102465.81;5113002;27;20066;-27
2022/04/03 00:07:21;;;;;;;2.53;0.80;;;;;;;1.80;93.77;102459.44;5114101;28;20055;-26
2022/04/03 00:09:49;;;;;;;1.55;0.60;;;;;;;1.73;93.95;102468.50;5113733;28;20515;-29
2022/04/03 00:12:17;;;;;;;1.60;0.57;;;;;;;1.68;93.94;102459.97;5112880;28;20503;-26
2022/04/03 00:14:44;;;;;;;1.88;0.60;;;;;;;1.62;94.13;102468.16;5113734;28;20128;-29
2022/04/03 00:17:13;;;;;;;1.35;0.45;;;;;;;1.57;94.45;102463.28;5112887;28;20050;-26
2022/04/03 00:19:42;;;;;;;1.80;0.50;;;;;;;1.52;93.91;102464.94;5113501;28;20460;-25
2022/04/03 00:22:11;;;;;;;1.17;0.47;;;;;;;1.47;94.03;102457.28;5113011;28;20051;-30
2022/04/03 00:24:39;;;;;;;1.45;0.60;;;;;;;1.43;94.62;102468.88;5112826;28;20066;-28
2022/04/03 00:27:07;;;;;;;1.35;0.60;;;;;;;1.38;95.00;102461.25;5113499;28;20066;-32
2022/04/03 00:29:35;;;;;;;2.55;0.82;;;;;;;1.33;94.78;102463.72;5113403;28;20120;-31
2022/04/03 00:32:04;;;;;;;2.45;0.73;;;;;;;1.29;95.74;102466.03;5112366;28;20051;-31
2022/04/03 00:34:32;;;;;;;2.38;0.63;;;;;;;1.23;95.69;102458.56;5113257;28;20050;-27
2022/04/03 00:37:01;;;;;;;2.83;0.60;;;;;;;1.19;95.95;102457.28;5113055;28;20496;-27
2022/04/03 00:39:29;;;;;;;1.50;0.70;;;;;;;1.15;96.56;102461.47;5112252;28;20059;-29
2022/04/03 00:41:57;;;;;;;3.03;1.10;;;;;;;1.12;96.31;102458.25;5112937;28;20050;-33
2022/04/03 00:44:25;;;;;;;2.15;0.60;;;;;;;1.07;96.63;102453.34;5112883;27;20130;-32
2022/04/03 00:46:53;;;;;;;2.38;0.70;;;;;;;1.04;97.08;102454.59;5112219;28;20138;-30
2022/04/03 00:49:21;;;;;;;1.17;0.50;;;;;;;1.02;96.70;102450.31;5113070;28;20051;-30
2022/04/03 00:51:48;;;;;;;1.50;0.60;;;;;;;0.99;96.87;102457.09;5113006;28;20055;-26
2022/04/03 00:54:17;;;;;;;1.75;0.60;;;;;;;0.96;96.85;102460.25;5112070;28;20117;-29
2022/04/03 00:56:46;;;;;;;1.70;0.60;;;;;;;0.94;96.55;102453.22;5111883;28;20405;-26
2022/04/03 00:59:15;;;;;;;2.20;0.90;;;;;;;0.90;96.67;102457.41;5111876;28;20047;-28
2022/04/03 01:01:44;;;;;;;2.42;1.15;;;;;;;0.86;97.58;102456.09;5112896;28;20050;-26
2022/04/03 01:04:12;;;;;;;3.60;1.77;;;;;;;0.83;97.13;102461.97;5112854;28;20055;-34
2022/04/03 01:06:39;;;;;;;6.03;3.03;;;;;;;0.79;97.12;102453.31;5112075;28;20050;-28
2022/04/03 01:09:07;;;;;;;7.95;3.88;;;;;;;0.77;97.47;102449.91;5112785;28;20134;-29
2022/04/03 01:11:39;;;;;;;7.15;3.45;;;;;;;0.74;97.43;102449.44;5112573;28;20414;-31
2022/04/03 01:14:07;;;;;;;8.05;3.25;;;;;;;0.71;97.56;102456.16;5111776;28;20493;-30
2022/04/03 01:16:35;;;;;;;5.88;2.63;;;;;;;0.68;98.09;102454.66;5112662;27;20493;-33
2022/04/03 01:19:04;;;;;;;4.35;2.00;;;;;;;0.66;97.88;102455.88;5112687;28;20469;-28
2022/04/03 01:21:32;;;;;;;4.85;2.30;;;;;;;0.64;97.84;102447.00;5111617;28;20043;-27
2022/04/03 01:24:00;;;;;;;5.28;2.08;;;;;;;0.61;98.20;102453.72;5112285;28;20062;-31
2022/04/03 01:26:29;;;;;;;4.80;2.22;;;;;;;0.58;98.48;102453.28;5112597;28;20040;-28
2022/04/03 01:28:57;;;;;;;3.95;2.03;;;;;;;0.53;98.32;102447.50;5111630;28;20104;-28
2022/04/03 01:31:24;;;;;;;4.72;2.05;;;;;;;0.49;98.38;102438.81;5112485;28;20572;-25
2022/04/03 01:33:52;;;;;;;6.32;2.63;;;;;;;0.47;98.34;102440.03;5111480;28;20527;-29
2022/04/03 01:36:20;;;;;;;6.65;2.58;;;;;;;0.45;98.19;102442.97;5111000;28;20135;-28
2022/04/03 01:38:48;;;;;;;5.28;2.28;;;;;;;0.44;98.04;102446.75;5112282;28;20056;-28
2022/04/03 01:41:16;;;;;;;3.95;1.88;;;;;;;0.42;98.02;102437.00;5111957;28;20048;-31
2022/04/03 01:43:45;;;;;;;4.57;2.55;;;;;;;0.40;98.12;102433.66;5110507;28;20055;-28
2022/04/03 01:46:13;;;;;;;6.18;2.47;;;;;;;0.36;98.18;102437.81;5111993;28;20051;-29
2022/04/03 01:48:40;;;;;;;4.97;1.83;;;;;;;0.33;98.63;102439.91;5111133;28;20457;-29
2022/04/03 01:51:08;;;;;;;6.05;2.78;;;;;;;0.31;97.82;102441.97;5111951;28;20035;-28
2022/04/03 01:53:36;;;;;;;3.60;1.65;;;;;;;0.29;99.02;102427.59;5112201;28;20498;-25
2022/04/03 01:56:05;;;;;;;5.88;2.25;;;;;;;0.27;98.61;102435.16;5111055;28;20043;-31
2022/04/03 01:58:34;;;;;;;4.55;1.90;;;;;;;0.25;98.86;102431.75;5111637;28;20423;-28
2022/04/03 02:01:05;;;;;;;5.10;2.42;;;;;;;0.22;98.65;102432.16;5111665;28;20376;-26
2022/04/03 02:03:33;;;;;;;4.13;2.17;;;;;;;0.19;99.16;102438.03;5110737;28;20086;-25
2022/04/03 02:06:00;;;;;;;4.72;2.08;;;;;;;0.17;99.32;102431.91;5112073;28;20078;-26
2022/04/03 02:08:28;;;;;;;4.00;1.75;;;;;;;0.12;98.61;102434.34;5111824;28;20056;-26
2022/04/03 02:10:57;;;;;;;3.72;1.80;;;;;;;0.10;98.59;102439.19;5110866;28;20053;-27
2022/04/03 02:13:25;;;;;;;4.63;2.13;;;;;;;0.08;99.00;102422.06;5111719;28;20043;-27
2022/04/03 02:15:52;;;;;;;3.40;1.70;;;;;;;0.06;98.97;102429.63;5111496;28;20082;-31
2022/04/03 02:18:23;;;;;;;3.25;1.65;;;;;;;0.03;99.46;102427.25;5110859;28;20404;-30
2022/04/03 02:20:51;;;;;;;3.88;1.67;;;;;;;0.00;99.19;102433.16;5111583;28;20036;-30
2022/04/03 02:23:18;;;;;;;3.63;1.52;;;;;;;-0.04;98.93;102426.34;5111555;28;20135;-28
2022/04/03 02:25:49;;;;;;;5.68;1.67;;;;;;;-0.05;98.95;102424.63;5110741;28;20043;-31
2022/04/03 02:28:17;;;;;;;3.45;1.42;;;;;;;-0.08;99.69;102427.75;5111476;28;20055;-26
2022/04/03 02:30:46;;;;;;;3.47;1.55;;;;;;;-0.09;99.42;102431.53;5110626;28;20051;-29
2022/04/03 02:33:17;;;;;;;2.72;1.38;;;;;;;-0.12;99.25;102424.53;5111464;28;20054;-27
2022/04/03 02:35:46;;;;;;;3.53;1.90;;;;;;;-0.15;99.35;102424.06;5111725;28;20046;-28
2022/04/03 02:38:15;;;;;;;2.55;1.30;;;;;;;-0.16;99.79;102420.47;5109104;28;20485;-33
2022/04/03 02:40:44;;;;;;;3.85;1.85;;;;;;;-0.18;99.50;102428.03;5111446;28;20083;-35
2022/04/03 02:43:12;;;;;;;3.65;1.63;;;;;;;-0.19;99.65;102420.84;5111381;28;20496;-27
2022/04/03 02:45:40;;;;;;;3.53;1.40;;;;;;;-0.20;99.81;102423.81;5111239;28;20043;-30
2022/04/03 02:48:09;;;;;;;4.20;1.77;;;;;;;-0.22;99.59;102424.00;5115554;28;20056;-25
2022/04/03 02:50:37;;;;;;;3.92;1.65;;;;;;;-0.24;99.47;102419.72;5115410;28;20101;-31
2022/04/03 02:53:06;;;;;;;4.18;1.60;;;;;;;-0.26;99.73;102419.91;5114365;28;20044;-27
2022/04/03 02:55:34;;;;;;;2.78;1.30;;;;;;;-0.29;99.98;102423.03;5115041;27;20047;-30
2022/04/03 02:58:02;;;;;;;4.00;1.42;;;;;;;-0.31;100.00;102414.13;5115406;28;20083;-25
2022/04/03 03:00:30;;;;;;;3.53;1.48;;;;;;;-0.31;100.00;102422.38;5114491;28;20042;-31
2022/04/03 03:02:58;;;;;;;3.15;1.52;;;;;;;-0.32;100.00;102414.31;5115073;28;20089;-28
2022/04/03 03:05:26;;;;;;;2.22;0.90;;;;;;;-0.32;100.00;102419.81;5115048;28;20047;-33
2022/04/03 03:07:54;;;;;;;4.25;1.45;;;;;;;-0.32;100.00;102411.59;5114207;28;20043;-28
2022/04/03 03:10:23;;;;;;;3.15;1.20;;;;;;;-0.31;100.00;102414.13;5114817;28;20063;-26
2022/04/03 03:12:51;;;;;;;3.40;1.00;;;;;;;-0.31;100.00;102413.28;5114214;28;20053;-29
2022/04/03 03:15:20;;;;;;;3.83;1.13;;;;;;;-0.33;100.00;102416.22;5114789;28;20503;-27
2022/04/03 03:17:47;;;;;;;2.83;1.63;;;;;;;-0.32;100.00;102414.31;5115272;27;20048;-26
2022/04/03 03:20:20;;;;;;;;;;;;;;;-0.38;100.00;102411.28;5114412;28;20449;-26
2022/04/03 03:22:48;;;;;;;3.10;1.25;;;;;;;-0.40;100.00;102418.84;5114386;28;20010;-30
2022/04/03 03:25:16;;;;;;;2.53;1.05;;;;;;;-0.39;100.00;102416.97;5114427;28;20043;-31
2022/04/03 03:27:45;;;;;;;2.80;1.08;;;;;;;-0.38;100.00;102403.06;5114039;28;20071;-26
2022/04/03 03:30:14;;;;;;;1.88;0.85;;;;;;;-0.40;100.00;102399.66;5114409;28;20044;-29
2022/04/03 03:32:41;;;;;;;2.10;0.80;;;;;;;-0.41;100.00;102406.22;5114329;28;20039;-27
2022/04/03 03:35:10;;;;;;;3.22;1.27;;;;;;;-0.41;100.00;102399.88;5113037;28;20518;-29
2022/04/03 03:37:38;;;;;;;2.55;0.90;;;;;;;-0.43;100.00;102405.53;5112389;28;20055;-29
2022/04/03 03:40:11;;;;;;;2.42;1.10;;;;;;;-0.44;100.00;102406.59;5112241;28;20051;-27
2022/04/03 03:42:41;;;;;;;1.88;0.73;;;;;;;-0.45;100.00;102404.03;5111357;28;20051;-27
2022/04/03 03:45:13;;;;;;;2.53;1.00;;;;;;;-0.45;100.00;102407.63;5112572;28;20100;-26
2022/04/03 03:47:43;;;;;;;1.52;0.60;;;;;;;-0.46;100.00;102399.59;5112383;28;20147;-32
2022/04/03 03:50:11;;;;;;;2.45;1.17;;;;;;;-0.46;100.00;102405.91;5111910;28;20046;-29
2022/04/03 03:52:41;;;;;;;2.63;0.90;;;;;;;-0.47;100.00;102409.69;5112543;28;20497;-28
2022/04/03 03:55:10;;;;;;;2.28;0.68;;;;;;;-0.49;100.00;102403.56;5101902;28;20127;-32
2022/04/03 03:57:38;;;;;;;2.10;0.82;;;;;;;-0.49;100.00;102403.56;5112653;28;20110;-29
2022/04/03 04:00:09;;;;;;;1.70;0.80;;;;;;;-0.49;100.00;102403.56;5114012;28;20426;-25
2022/04/03 04:02:41;;;;;;;1.73;0.60;;;;;;;-0.47;100.00;102404.22;5112632;28;20491;-27
2022/04/03 04:05:10;;;;;;;1.58;0.60;;;;;;;-0.45;100.00;102407.63;5113861;28;20047;-30
2022/04/03 04:07:40;;;;;;;2.33;0.85;;;;;;;-0.43;100.00;102402.81;5114002;28;20048;-33
2022/04/03 04:10:11;;;;;;;1.70;0.90;;;;;;;-0.41;100.00;102403.47;5112912;28;20067;-31
2022/04/03 04:12:39;;;;;;;2.10;0.77;;;;;;;-0.38;100.00;102397.59;5113474;28;20124;-30
2022/04/03 04:15:07;;;;;;;2.45;0.70;;;;;;;-0.36;100.00;102395.50;5113406;28;20036;-27
2022/04/03 04:17:36;;;;;;;3.22;0.80;;;;;;;-0.32;100.00;102397.88;5109020;28;20134;-33
2022/04/03 04:20:07;;;;;;;2.85;0.80;;;;;;;-0.29;100.00;102398.34;5113297;28;20074;-29
2022/04/03 04:22:35;;;;;;;1.75;0.70;;;;;;;-0.24;100.00;102398.63;5113050;28;20141;-28
2022/04/03 04:25:04;;;;;;;1.88;0.50;;;;;;;-0.16;100.00;102392.19;5112374;28;20036;-29
2022/04/03 04:27:32;;;;;;;1.13;0.40;;;;;;;-0.07;100.00;102391.91;5111511;28;20055;-31
2022/04/03 04:30:00;;;;;;;1.58;0.50;;;;;;;0.04;100.00;102386.94;5113425;28;20060;-26
2022/04/03 04:32:28;;;;;;;2.53;0.60;;;;;;;0.13;100.00;102383.91;5112242;28;20051;-36
2022/04/03 04:34:56;;;;;;;1.35;0.30;;;;;;;0.22;100.00;102388.22;5105287;28;20519;-30
2022/04/03 04:37:25;;;;;;;1.30;0.47;;;;;;;0.29;100.00;102389.16;5112189;28;20048;-31
2022/04/03 04:39:53;;;;;;;2.72;0.50;;;;;;;0.35;100.00;102382.06;5112865;28;20474;-29
2022/04/03 04:42:21;;;;;;;1.08;0.40;;;;;;;0.40;100.00;102381.47;5112974;28;20564;-31
2022/04/03 04:44:49;;;;;;;2.38;0.40;;;;;;;0.44;100.00;102382.75;5112177;28;20403;-29
2022/04/03 04:47:16;;;;;;;1.45;0.40;;;;;;;0.49;100.00;102380.28;5112818;28;20131;-26
2022/04/03 04:49:44;;;;;;;1.55;0.30;;;;;;;0.51;100.00;102387.28;5112750;28;20055;-30
2022/04/03 04:52:12;;;;;;;1.83;0.50;;;;;;;0.58;100.00;102387.38;5112373;28;20040;-27
2022/04/03 04:54:41;;;;;;;3.97;0.40;;;;;;;0.65;100.00;102389.13;5112749;28;20397;-30
2022/04/03 04:57:09;;;;;;;1.42;0.32;;;;;;;0.76;100.00;102393.25;5112474;28;20081;-32
2022/04/03 04:59:36;;;;;;;3.17;0.40;;;;;;;0.86;100.00;102393.75;5111545;28;20065;-29
2022/04/03 05:02:06;;;;;;;2.33;0.50;;;;;;;0.95;100.00;102395.31;5111961;28;20052;-31
2022/04/03 05:04:34;;;;;;;1.38;0.40;;;;;;;1.03;100.00;102391.56;5111963;28;20054;-29
2022/04/03 05:07:05;;;;;;;2.58;0.30;;;;;;;1.10;100.00;102386.97;5111610;28;20504;-25
2022/04/03 05:09:33;;;;;;;2.58;0.50;;;;;;;1.19;100.00;102384.94;5112277;28;20085;-25
2022/04/03 05:12:02;;;;;;;1.58;0.50;;;;;;;1.28;100.00;102386.47;5112046;28;20054;-25
2022/04/03 05:14:30;;;;;;;2.33;0.40;;;;;;;1.36;100.00;102378.09;5108091;28;20078;-32
2022/04/03 05:16:58;;;;;;;3.97;0.70;;;;;;;1.46;100.00;102380.47;5112530;27;20057;-31
2022/04/03 05:19:27;;;;;;;2.53;0.60;;;;;;;1.55;100.00;102387.53;5111347;28;20075;-31
2022/04/03 05:21:54;;;;;;;2.08;0.50;;;;;;;1.64;100.00;102378.03;5112313;28;20083;-27
2022/04/03 05:24:22;;;;;;;3.40;0.40;;;;;;;1.73;100.00;102382.34;5111885;27;20248;-27
2022/04/03 05:26:50;;;;;;;2.88;0.50;;;;;;;1.83;100.00;102373.69;5111382;28;20047;-32
2022/04/03 05:29:19;;;;;;;5.30;0.50;;;;;;;1.95;100.00;102381.16;5111951;28;20096;-25
2022/04/03 05:31:47;;;;;;;1.70;0.30;;;;;;;2.05;100.00;102375.25;5111544;28;20218;-27
2022/04/03 05:34:15;;;;;;;3.75;0.88;;;;;;;2.14;100.00;102374.03;5111006;28;20126;-26
2022/04/03 05:36:43;;;;;;;4.15;0.50;;;;;;;2.24;100.00;102374.50;5111946;28;20141;-28
2022/04/03 05:39:10;;;;;;;1.42;0.38;;;;;;;2.33;100.00;102362.25;5111590;28;20058;-30
2022/04/03 05:41:40;;;;;;;1.77;0.30;;;;;;;2.42;100.00;102372.00;5110984;28;20147;-27
2022/04/03 05:44:09;;;;;;;3.13;0.40;;;;;;;2.50;100.00;102375.63;5111526;28;20061;-31
2022/04/03 05:46:38;;;;;;;2.15;0.40;;;;;;;2.59;100.00;102374.38;5109948;28;20142;-33
2022/04/03 05:49:05;;;;;;;1.52;0.55;;;;;;;2.68;100.00;102378.63;5110959;28;20451;-28
2022/04/03 05:51:33;;;;;;;1.52;0.28;;;;;;;2.76;100.00;102370.16;5109927;28;20047;-26
2022/04/03 05:54:01;;;;;;;3.67;0.40;;;;;;;2.87;100.00;102377.78;5111320;28;20039;-27
2022/04/03 05:56:31;;;;;;;1.75;0.55;;;;;;;2.97;100.00;102375.47;5103052;28;20120;-29
2022/04/03 05:58:58;;;;;;;2.70;0.50;;;;;;;3.05;100.00;102378.00;5110096;28;20154;-28
2022/04/03 06:01:26;;;;;;;1.88;0.40;;;;;;;3.17;100.00;102377.38;5109925;28;20039;-25
2022/04/03 06:03:55;;;;;;;3.15;0.50;;;;;;;3.29;100.00;102375.66;5109180;28;20074;-30
2022/04/03 06:06:23;;;;;;;2.75;0.75;;;;;;;3.40;100.00;102391.56;5109889;28;20059;-31
2022/04/03 06:08:51;;;;;;;4.25;0.50;;;;;;;3.49;100.00;102395.81;5109351;28;20047;-30
2022/04/03 06:11:18;;;;;;;2.65;0.55;;;;;;;3.55;100.00;102400.47;5110449;28;20044;-28
2022/04/03 06:13:46;;;;;;;1.63;0.40;;;;;;;3.57;100.00;102392.81;5110320;28;20054;-28
2022/04/03 06:16:14;;;;;;;1.83;0.40;;;;;;;3.59;100.00;102400.91;5107471;28;20088;-29
2022/04/03 06:18:42;;;;;;;2.70;0.40;;;;;;;3.62;100.00;102406.81;5110178;28;20386;-30
2022/04/03 06:21:12;;;;;;;1.77;0.30;;;;;;;3.66;100.00;102404.47;5111644;28;20419;-27
2022/04/03 06:23:40;;;;;;;2.00;0.40;;;;;;;3.70;100.00;102403.84;5113176;28;20052;-33
2022/04/03 06:26:08;;;;;;;2.65;0.47;;;;;;;3.77;100.00;102403.81;5113706;28;20098;-35
2022/04/03 06:28:35;;;;;;;2.63;0.57;;;;;;;3.83;100.00;102416.75;5114069;28;20043;-36
2022/04/03 06:31:04;;;;;;;4.43;0.60;;;;;;;3.87;100.00;102415.25;5112778;27;20051;-28
2022/04/03 06:33:32;;;;;;;4.10;0.47;;;;;;;3.89;100.00;102418.66;5114017;28;20485;-28
2022/04/03 06:36:00;;;;;;;2.95;0.47;;;;;;;3.91;100.00;102418.44;5114215;28;20054;-26
2022/04/03 06:38:30;;;;;;;5.50;0.60;;;;;;;3.94;100.00;102420.75;5111532;28;20051;-33
2022/04/03 06:41:00;;;;;;;2.08;0.47;;;;;;;3.94;100.00;102429.06;5111489;28;20044;-32
2022/04/03 06:43:29;;;;;;;1.67;0.30;;;;;;;3.93;100.00;102424.59;5113674;28;20373;-29
2022/04/03 06:45:58;;;;;;;3.13;0.50;;;;;;;3.94;100.00;102429.06;5112728;28;20058;-29
2022/04/03 06:48:28;;;;;;;2.35;0.35;;;;;;;3.96;100.00;102435.22;5113746;28;20054;-31
2022/04/03 06:50:55;;;;;;;1.02;0.40;;;;;;;3.98;100.00;102441.38;5112750;28;20043;-30
2022/04/03 06:53:23;;;;;;;1.40;0.20;;;;;;;3.98;100.00;102433.09;5113722;28;20504;-27
2022/04/03 06:55:52;;;;;;;0.82;0.30;;;;;;;4.00;100.00;102437.28;5113248;28;20059;-31
2022/04/03 06:58:20;;;;;;;1.45;0.38;;;;;;;4.03;100.00;102433.25;5112949;28;20043;-30
2022/04/03 07:00:52;;;;;;;0.43;0.20;;;;;;;4.08;100.00;102428.78;5108817;28;20047;-27
2022/04/03 07:03:20;;;;;;;1.75;0.30;;;;;;;4.14;100.00;102427.91;5112946;28;20039;-31
2022/04/03 07:05:49;;;;;;;2.90;0.55;;;;;;;4.22;100.00;102431.47;5109897;28;20043;-27
2022/04/03 07:08:17;;;;;;;0.30;0.10;;;;;;;4.27;100.00;102429.78;5112752;28;20044;-30
2022/04/03 07:10:46;;;;;;;0.30;0.20;;;;;;;4.34;100.00;102427.84;5113282;28;20048;-34
2022/04/03 07:13:15;;;;;;;1.55;0.20;;;;;;;4.47;100.00;102425.00;5112117;28;20051;-30
2022/04/03 07:15:43;;;;;;;1.05;0.20;;;;;;;4.73;100.00;102431.47;5110853;28;20059;-27
2022/04/03 07:18:11;;;;;;;2.67;0.40;;;;;;;5.01;100.00;102433.81;5109674;28;20054;-25
2022/04/03 07:20:39;;;;;;;1.73;0.32;;;;;;;5.23;100.00;102425.97;5112322;28;20492;-30
2022/04/03 07:23:06;;;;;;;2.67;0.38;;;;;;;5.34;100.00;102423.34;5113436;28;20048;-28
2022/04/03 07:25:34;;;;;;;2.50;0.40;;;;;;;5.45;100.00;102435.59;5113235;28;20043;-27
2022/04/03 07:28:02;;;;;;;2.83;0.30;;;;;;;5.56;100.00;102434.84;5112365;27;20154;-28
2022/04/03 07:30:32;;;;;;;1.25;0.32;;;;;;;5.72;100.00;102425.97;5113027;28;20062;-30
2022/04/03 07:33:00;;;;;;;1.00;0.30;;;;;;;5.94;100.00;102425.56;5112327;28;20552;-33
2022/04/03 07:35:28;;;;;;;1.05;0.30;;;;;;;6.32;100.00;102423.38;5112749;28;20039;-26
2022/04/03 07:37:55;;;;;;;1.75;0.40;;;;;;;6.52;100.00;102421.19;5112964;28;20103;-27
2022/04/03 07:40:23;;;;;;;1.38;0.32;;;;;;;6.62;100.00;102433.66;5111795;28;20559;-26
2022/04/03 07:43:11;;;;;;;1.35;0.38;;;;;;;6.68;100.00;102427.16;5111955;28;20104;-32
2022/04/03 07:45:40;;;;;;;0.77;0.30;;;;;;;6.72;100.00;102432.03;5112735;28;20043;-30
2022/04/03 07:48:08;;;;;;;1.35;0.40;;;;;;;6.98;100.00;102439.13;5112077;28;20048;-34
2022/04/03 07:50:37;;;;;;;2.42;0.40;;;;;;;7.75;100.00;102436.31;5112638;28;20047;-30
2022/04/03 07:53:06;;;;;;;1.55;0.40;;;;;;;8.69;100.00;102437.00;5101571;28;20047;-30
2022/04/03 07:55:34;;;;;;;2.40;0.30;;;;;;;9.48;100.00;102438.72;5111544;28;20126;-26
2022/04/03 07:58:02;;;;;;;2.92;0.45;;;;;;;10.07;97.02;102438.22;5112681;28;20075;-27
2022/04/03 08:00:30;;;;;;;2.03;0.40;;;;;;;10.43;93.65;102443.22;5112688;28;20048;-27
2022/04/03 08:02:59;;;;;;;2.15;0.40;;;;;;;10.67;91.13;102439.06;5111592;28;20122;-26
2022/04/03 08:05:27;;;;;;;2.00;0.30;;;;;;;10.86;88.66;102435.91;5111882;28;20412;-32
2022/04/03 08:07:55;;;;;;;1.17;0.30;;;;;;;11.14;87.74;102434.81;5111758;28;20120;-28
2022/04/03 08:10:23;;;;;;;3.63;0.50;;;;;;;11.69;86.70;102429.69;5108085;28;20047;-26
2022/04/03 08:12:53;;;;;;;2.10;0.70;;;;;;;12.30;83.67;102432.06;5112382;28;20047;-35
2022/04/03 08:15:21;;;;;;;2.45;0.35;;;;;;;12.65;79.84;102429.41;5108383;28;20047;-33
2022/04/03 08:17:49;;;;;;;1.45;0.45;;;;;;;12.77;75.92;102435.63;5111193;28;20138;-31
2022/04/03 08:20:19;;;;;;;1.83;0.30;;;;;;;13.03;74.06;102421.63;5109544;28;20054;-32
2022/04/03 08:22:48;;;;;;;1.25;0.32;;;;;;;13.55;72.04;102431.81;5110296;28;20507;-27
2022/04/03 08:25:17;;;;;;;3.55;0.45;;;;;;;14.16;68.21;102423.31;5112800;28;20050;-29
2022/04/03 08:27:46;;;;;;;1.63;0.40;;;;;;;14.51;65.02;102426.00;5113226;28;20044;-27
2022/04/03 08:30:16;;;;;;;2.05;0.40;;;;;;;14.81;61.51;102431.47;5111919;28;20051;-29
2022/04/03 08:32:44;;;;;;;0.85;0.30;;;;;;;14.92;59.74;102425.81;5112802;28;20049;-29
2022/04/03 08:35:12;;;;;;;3.28;0.30;;;;;;;14.96;58.54;102424.94;5112878;28;20058;-33
2022/04/03 08:37:41;;;;;;;1.75;0.40;;;;;;;14.95;57.91;102426.06;5112324;28;20052;-36
2022/04/03 08:40:16;;;;;;;1.95;0.40;;;;;;;14.73;57.31;102420.84;5112459;28;20508;-30
2022/04/03 08:42:43;;;;;;;2.22;0.40;;;;;;;14.33;57.14;102424.66;5112860;28;20050;-31
2022/04/03 08:45:12;;;;;;;1.90;0.30;;;;;;;13.68;57.68;102434.91;5111298;28;20051;-30
2022/04/03 08:47:44;;;;;;;1.80;0.30;;;;;;;13.09;59.38;102431.75;5112380;28;20130;-30
2022/04/03 08:50:13;;;;;;;1.10;0.30;;;;;;;12.40;60.74;102435.72;5112697;28;20050;-27
2022/04/03 08:52:45;;;;;;;3.20;0.50;;;;;;;11.81;62.67;102435.09;5111964;28;20138;-33
2022/04/03 08:55:14;;;;;;;1.52;0.75;;;;;;;11.33;63.70;102427.72;5100528;28;20051;-28
2022/04/03 08:57:45;;;;;;;2.53;0.60;;;;;;;11.12;65.97;102431.44;5110149;28;20059;-28
2022/04/03 09:00:14;;;;;;;3.10;0.50;;;;;;;11.52;67.41;102430.97;5111884;28;20400;-31
2022/04/03 09:02:45;;;;;;;2.33;0.40;;;;;;;12.03;65.93;102424.63;5111030;28;20051;-31
2022/04/03 09:05:14;;;;;;;1.80;0.30;;;;;;;12.38;64.21;102425.94;5111701;28;20539;-27
2022/04/03 09:07:44;;;;;;;3.20;0.50;;;;;;;12.87;63.57;102423.56;5100271;28;20190;-33
2022/04/03 09:10:14;;;;;;;2.13;0.50;;;;;;;13.60;62.18;102420.56;5108233;28;20058;-34
2022/04/03 09:12:44;;;;;;;1.50;0.40;;;;;;;14.28;59.02;102416.22;5111446;28;20050;-31
2022/04/03 09:15:14;;;;;;;2.55;0.50;;;;;;;14.82;56.59;102407.84;5110765;28;20498;-41
2022/04/03 09:17:45;;;;;;;1.98;0.50;;;;;;;15.36;54.26;102418.19;5108480;28;20562;-29
2022/04/03 09:20:15;;;;;;;2.17;0.50;;;;;;;15.57;52.18;102415.22;5108954;28;20051;-33
2022/04/03 09:22:46;;;;;;;1.50;0.30;;;;;;;15.61;51.15;102411.50;5111031;28;20047;-31
2022/04/03 09:25:17;;;;;;;2.58;0.50;;;;;;;15.87;51.43;102409.28;5111706;28;20500;-32
2022/04/03 09:27:48;;;;;;;1.27;0.30;;;;;;;16.31;49.86;102413.88;5111427;28;20054;-30
2022/04/03 09:30:16;;;;;;;1.02;0.32;;;;;;;16.73;49.29;102404.63;5111979;28;20138;-34
2022/04/03 09:32:48;;;;;;;1.80;0.40;;;;;;;17.18;46.96;102406.78;5110883;28;20492;-31
2022/04/03 09:35:18;;;;;;;1.50;0.32;;;;;;;17.58;47.15;102413.69;5111799;28;20048;-33
2022/04/03 09:38:07;;;;;;;1.58;0.30;;;;;;;18.14;44.32;102424.00;5111582;28;20461;-33
2022/04/03 09:40:36;;;;;;;3.25;0.50;;;;;;;17.82;45.36;102436.19;5111382;28;20484;-27
2022/04/03 09:43:15;;;;;;;3.25;0.40;;;;;;;16.87;45.48;102428.09;5110348;28;20062;-32
2022/04/03 09:45:45;;;;;;;1.80;0.55;;;;;;;15.83;48.77;102436.34;5111666;28;20130;-31
2022/04/03 09:48:31;;;;;;;1.95;0.40;;;;;;;14.83;50.83;102440.44;5109034;28;20054;-33
2022/04/03 09:51:04;;;;;;;2.20;0.45;;;;;;;13.98;53.60;102444.41;5111792;28;20051;-30
2022/04/03 09:53:48;;;;;;;1.55;0.20;;;;;;;13.30;55.38;102435.44;5111713;28;20048;-29
2022/04/03 09:56:28;;;;;;;1.40;0.22;;;;;;;12.79;57.68;102428.91;5110543;28;20491;-26
2022/04/03 09:59:00;;;;;;;0.40;0.20;;;;;;;12.36;59.78;102423.41;5111620;28;20167;-33
2022/04/03 10:01:30;;;;;;;0.95;0.30;;;;;;;12.05;60.65;102422.41;5110668;28;20062;-31
2022/04/03 10:04:00;;;;;;;1.15;0.20;;;;;;;11.81;61.93;102418.31;5110491;28;20061;-27
2022/04/03 10:06:30;;;;;;;0.95;0.25;;;;;;;11.64;63.09;102421.25;5111242;28;20108;-29
2022/04/03 10:09:00;;;;;;;1.13;0.30;;;;;;;11.88;66.57;102415.31;5110412;28;20047;-27
2022/04/03 10:11:29;;;;;;;1.73;0.40;;;;;;;12.48;67.69;102414.78;5111659;28;20079;-32
2022/04/03 10:13:57;;;;;;;1.15;0.30;;;;;;;13.14;67.51;102412.16;5111012;28;20093;-27
2022/04/03 10:16:25;;;;;;;1.40;0.57;;;;;;;13.77;65.35;102412.72;5110841;28;20389;-31
2022/04/03 10:18:53;;;;;;;2.63;1.05;;;;;;;14.08;64.04;102416.31;5111261;28;20422;-27
2022/04/03 10:21:27;;;;;;;2.28;0.80;;;;;;;14.29;63.88;102409.50;5111090;28;20062;-28
2022/04/03 10:23:59;;;;;;;2.42;0.50;;;;;;;14.62;62.43;102416.38;5110756;28;20048;-27
2022/04/03 10:26:29;;;;;;;2.25;0.32;;;;;;;15.03;61.14;102402.94;5111177;28;20085;-28
2022/04/03 10:28:58;;;;;;;2.65;0.40;;;;;;;15.40;58.18;102407.16;5110418;28;20416;-29
2022/04/03 10:31:26;;;;;;;1.77;0.30;;;;;;;15.68;57.22;102399.91;5110948;28;20047;-31
2022/04/03 10:33:54;;;;;;;2.85;0.50;;;;;;;15.99;56.52;102406.06;5110657;28;20519;-28
2022/04/03 10:36:26;;;;;;;1.88;0.40;;;;;;;16.18;54.89;102407.84;5110412;28;20055;-26
2022/04/03 10:39:00;;;;;;;2.45;0.40;;;;;;;16.34;53.84;102407.66;5110955;28;20051;-32
2022/04/03 10:41:31;;;;;;;2.78;0.40;;;;;;;16.53;53.33;102405.72;5111442;28;20079;-29
2022/04/03 10:44:18;;;;;;;1.47;0.40;;;;;;;16.63;51.21;102411.22;5109063;28;20412;-34
2022/04/03 10:47:22;;;;;;;3.17;0.50;;;;;;;16.75;51.04;102405.16;5110930;28;20048;-31
2022/04/03 10:49:59;;;;;;;1.58;0.45;;;;;;;16.89;52.02;102397.63;5110832;28;20047;-31
2022/04/03 10:52:52;;;;;;;2.83;0.40;;;;;;;17.01;50.86;102399.97;5111125;28;20049;-26
2022/04/03 10:55:21;;;;;;;2.83;0.50;;;;;;;17.02;50.53;102390.38;5111391;28;20167;-32
2022/04/03 10:57:53;;;;;;;1.38;0.40;;;;;;;17.13;50.07;102387.09;5110530;28;20051;-29
2022/04/03 11:00:34;;;;;;;2.05;0.30;;;;;;;17.19;48.81;102385.84;5110860;28;20050;-32
2022/04/03 11:03:33;;;;;;;1.20;0.30;;;;;;;17.30;47.27;102392.19;5105011;28;20055;-28
2022/04/03 11:06:26;;;;;;;2.03;0.40;;;;;;;17.39;47.25;102386.66;5109897;28;20148;-34
2022/04/03 11:09:10;;;;;;;2.75;0.57;;;;;;;17.44;47.55;102387.41;5114417;28;20043;-32
2022/04/03 11:12:04;;;;;;;1.25;0.30;;;;;;;17.44;48.01;102381.78;5094348;28;20056;-31
2022/04/03 11:14:52;;;;;;;2.15;0.38;;;;;;;17.37;46.65;102381.34;5091650;28;20058;-26
2022/04/03 11:17:46;;;;;;;2.55;0.63;;;;;;;17.31;45.30;102382.56;5094856;28;20052;-30
2022/04/03 11:20:33;;;;;;;1.77;0.30;;;;;;;17.17;45.24;102376.03;5093708;28;20043;-26
2022/04/03 11:23:03;;;;;;;2.05;0.30;;;;;;;17.19;46.43;102382.19;5094433;28;20050;-28
2022/04/03 11:25:31;;;;;;;1.55;0.57;;;;;;;17.27;46.14;102372.19;5094030;28;20409;-29
2022/04/03 11:27:59;;;;;;;4.25;0.90;;;;;;;17.33;45.92;102377.47;5094145;28;20056;-35
2022/04/03 11:30:27;;;;;;;1.85;0.35;;;;;;;17.36;45.75;102371.19;5093355;28;20055;-31
2022/04/03 11:32:57;;;;;;;2.33;0.43;;;;;;;17.42;44.48;102369.09;5093133;28;20460;-33
2022/04/03 11:35:40;;;;;;;1.25;0.57;;;;;;;17.48;43.57;102362.25;5093406;28;20506;-28
2022/04/03 11:38:10;;;;;;;1.38;0.30;;;;;;;17.53;43.98;102379.09;5093903;28;20075;-33
2022/04/03 11:40:40;;;;;;;2.65;0.35;;;;;;;17.49;43.77;102370.41;5093479;28;20058;-26